Terminal Aerodrome Forecast
Issued by NWS Twin Cities, MN

Home | Current Version | Previous Version | Text Only | Print | Product List | Glossary Off
Versions: 1 2 3 4 5 6 7 8 9 10 11 12 13 14 15 16 17 18 19 20 21 22 23

884
FTUS43 KMPX 262043 AAA
TAFMSP
TAF AMD
KMSP 262043Z 2621/2724 35012G18KT P6SM SCT012 BKN020 OVC035
     FM270200 33008KT P6SM SCT008 OVC012
      TEMPO 2702/2706 -SN BKN020
     FM271700 30009KT P6SM BKN020
     FM272000 29009KT P6SM BKN035=

USA.gov is the U.S. government's official web portal to all federal, state and local government web resources and services.